createdAt,value
2019-05-19T00:02:06.330Z,100.00
2019-05-19T00:04:37.612Z,100.00
2019-05-19T00:07:08.328Z,100.00
2019-05-19T00:09:41.342Z,100.00
2019-05-19T00:12:11.642Z,100.00
2019-05-19T00:14:41.942Z,100.00
2019-05-19T00:17:12.184Z,100.00
2019-05-19T00:19:42.361Z,100.00
2019-05-19T00:22:12.692Z,100.00
2019-05-19T00:24:42.943Z,100.00
2019-05-19T00:27:13.202Z,100.00
2019-05-19T00:29:43.789Z,100.00
2019-05-19T00:32:14.182Z,100.00
2019-05-19T00:34:44.565Z,100.00
2019-05-19T00:37:14.877Z,100.00
2019-05-19T00:39:45.197Z,100.00
2019-05-19T00:42:15.751Z,100.00
2019-05-19T00:44:46.146Z,100.00
2019-05-19T00:47:16.502Z,100.00
2019-05-19T00:49:46.939Z,100.00
2019-05-19T00:52:17.953Z,100.00
2019-05-19T00:54:48.170Z,100.00
2019-05-19T00:57:18.735Z,100.00
2019-05-19T00:59:49.481Z,100.00
2019-05-19T01:02:19.745Z,100.00
2019-05-19T01:04:50.368Z,100.00
2019-05-19T01:07:20.985Z,100.00
2019-05-19T01:09:51.977Z,100.00
2019-05-19T01:12:22.246Z,100.00
2019-05-19T01:14:52.433Z,99.59
2019-05-19T01:17:24.008Z,100.00
2019-05-19T01:19:56.401Z,100.00
2019-05-19T01:22:26.913Z,100.00
2019-05-19T01:24:57.116Z,100.00
2019-05-19T01:27:27.384Z,100.00
2019-05-19T01:29:57.815Z,100.00
2019-05-19T01:32:28.218Z,100.00
2019-05-19T01:34:58.705Z,100.00
2019-05-19T01:37:29.086Z,100.00
2019-05-19T01:39:59.298Z,100.00
2019-05-19T01:42:29.687Z,100.00
2019-05-19T01:44:59.818Z,100.00
2019-05-19T01:47:30.002Z,100.00
2019-05-19T01:50:16.835Z,100.00
2019-05-19T01:52:32.197Z,100.00
2019-05-19T01:55:02.431Z,100.00
2019-05-19T01:57:32.931Z,100.00
2019-05-19T02:00:03.582Z,100.00
2019-05-19T02:02:35.143Z,100.00
2019-05-19T02:05:05.596Z,100.00
2019-05-19T02:07:36.109Z,100.00
2019-05-19T02:10:06.731Z,100.00
2019-05-19T02:12:36.995Z,100.00
2019-05-19T02:15:07.329Z,100.00
2019-05-19T02:17:37.653Z,100.00
2019-05-19T02:20:08.293Z,100.00
2019-05-19T02:22:38.640Z,100.00
2019-05-19T02:25:09.142Z,100.00
2019-05-19T02:27:41.780Z,100.00
2019-05-19T02:30:12.258Z,100.00
2019-05-19T02:32:42.495Z,100.00
2019-05-19T02:35:12.637Z,100.00
2019-05-19T02:37:42.900Z,100.00
2019-05-19T02:40:13.035Z,100.00
2019-05-19T02:42:44.012Z,100.00
2019-05-19T02:45:15.921Z,100.00
2019-05-19T02:47:46.471Z,100.00
2019-05-19T02:50:16.639Z,100.00
2019-05-19T02:52:48.183Z,100.00
2019-05-19T02:55:19.632Z,100.00
2019-05-19T02:57:51.311Z,100.00
2019-05-19T03:00:30.904Z,100.00
2019-05-19T03:03:01.098Z,100.00
2019-05-19T03:05:31.341Z,100.00
2019-05-19T03:08:04.465Z,100.00
2019-05-19T03:10:34.928Z,100.00
2019-05-19T03:13:05.153Z,100.00
2019-05-19T03:15:35.273Z,100.00
2019-05-19T03:18:05.501Z,100.00
2019-05-19T03:20:35.631Z,100.00
2019-05-19T03:23:07.085Z,100.00
2019-05-19T03:25:39.078Z,100.00
2019-05-19T03:28:09.399Z,100.00
2019-05-19T03:31:04.475Z,100.00
2019-05-19T03:33:36.485Z,100.00
2019-05-19T03:36:07.098Z,100.00
2019-05-19T03:38:37.454Z,100.00
2019-05-19T03:41:07.760Z,100.00
2019-05-19T03:43:38.229Z,100.00
2019-05-19T03:46:08.776Z,100.00
2019-05-19T03:48:39.233Z,100.00
2019-05-19T03:51:27.324Z,100.00
2019-05-19T03:53:41.228Z,100.00
2019-05-19T03:56:13.373Z,100.00
2019-05-19T03:58:45.079Z,100.00
2019-05-19T04:01:15.450Z,100.00
2019-05-19T04:03:48.175Z,100.00
2019-05-19T04:06:18.371Z,100.00
2019-05-19T04:08:48.568Z,100.00
2019-05-19T04:11:18.788Z,100.00
2019-05-19T04:13:49.050Z,100.00
2019-05-19T04:16:23.706Z,100.00
2019-05-19T04:18:53.915Z,100.00
2019-05-19T04:21:24.124Z,100.00
2019-05-19T04:23:54.499Z,100.00
2019-05-19T04:26:24.634Z,100.00
2019-05-19T04:28:54.739Z,100.00
2019-05-19T04:31:26.227Z,100.00
2019-05-19T04:33:56.509Z,100.00
2019-05-19T04:36:26.742Z,100.00
2019-05-19T04:38:57.213Z,100.00
2019-05-19T04:41:29.080Z,100.00
2019-05-19T04:43:59.241Z,99.91
2019-05-19T04:46:29.522Z,98.98
2019-05-19T04:49:00.014Z,98.07
2019-05-19T04:51:30.376Z,97.37
2019-05-19T04:54:00.663Z,96.49
2019-05-19T04:56:32.764Z,95.52
2019-05-19T04:59:03.079Z,94.78
2019-05-19T05:01:33.249Z,94.37
2019-05-19T05:04:03.670Z,93.83
2019-05-19T05:06:34.027Z,93.08
2019-05-19T05:09:04.936Z,93.05
2019-05-19T05:11:35.363Z,92.74
2019-05-19T05:14:07.350Z,91.29
2019-05-19T05:16:37.544Z,90.00
2019-05-19T05:19:07.762Z,90.18
2019-05-19T05:21:38.071Z,90.14
2019-05-19T05:24:08.233Z,89.99
2019-05-19T05:26:38.425Z,89.88
2019-05-19T05:29:08.691Z,90.63
2019-05-19T05:31:39.469Z,90.35
2019-05-19T05:34:09.691Z,89.69
2019-05-19T05:36:39.892Z,89.42
2019-05-19T05:39:10.077Z,89.08
2019-05-19T05:41:40.298Z,89.63
2019-05-19T05:44:10.762Z,90.17
2019-05-19T05:46:41.057Z,90.96
2019-05-19T05:49:11.327Z,90.76
2019-05-19T05:51:41.475Z,91.46
2019-05-19T05:54:11.736Z,91.71
2019-05-19T05:56:43.865Z,91.53
2019-05-19T05:59:14.308Z,91.79
2019-05-19T06:01:44.654Z,91.23
2019-05-19T06:04:15.317Z,90.71
2019-05-19T06:06:45.954Z,91.11
2019-05-19T06:09:16.328Z,91.16
2019-05-19T06:11:46.613Z,90.85
2019-05-19T06:14:17.074Z,89.83
2019-05-19T06:16:49.004Z,89.12
2019-05-19T06:19:19.265Z,88.91
2019-05-19T06:21:49.693Z,87.07
2019-05-19T06:24:21.356Z,87.70
2019-05-19T06:26:51.736Z,87.84
2019-05-19T06:29:22.008Z,86.21
2019-05-19T06:31:53.680Z,84.98
2019-05-19T06:34:24.062Z,84.93
2019-05-19T06:36:55.147Z,84.52
2019-05-19T06:39:25.728Z,84.55
2019-05-19T06:41:56.063Z,84.60
2019-05-19T06:44:26.307Z,82.06
2019-05-19T06:46:56.628Z,82.60
2019-05-19T06:49:27.164Z,80.41
2019-05-19T06:51:57.562Z,81.66
2019-05-19T06:54:28.012Z,80.74
2019-05-19T06:56:58.360Z,79.15
2019-05-19T06:59:28.972Z,80.01
2019-05-19T07:01:59.160Z,79.76
2019-05-19T07:04:29.374Z,79.38
2019-05-19T07:06:59.684Z,79.62
2019-05-19T07:09:30.093Z,77.92
2019-05-19T07:12:01.871Z,78.76
2019-05-19T07:14:32.190Z,78.64
2019-05-19T07:17:02.592Z,76.65
2019-05-19T07:19:32.877Z,75.71
2019-05-19T07:22:03.168Z,75.59
2019-05-19T07:24:33.921Z,74.25
2019-05-19T07:27:04.320Z,75.17
2019-05-19T07:29:34.624Z,75.09
2019-05-19T07:32:05.439Z,73.14
2019-05-19T07:34:35.702Z,74.77
2019-05-19T07:37:06.907Z,74.63
2019-05-19T07:39:37.555Z,73.77
2019-05-19T07:42:08.183Z,73.63
2019-05-19T07:44:38.690Z,74.26
2019-05-19T07:47:09.395Z,74.77
2019-05-19T07:49:39.800Z,76.43
2019-05-19T07:52:10.065Z,76.88
2019-05-19T07:54:42.190Z,76.46
2019-05-19T07:57:12.471Z,76.34
2019-05-19T07:59:42.955Z,76.00
2019-05-19T08:02:13.866Z,74.02
2019-05-19T08:04:44.571Z,75.08
2019-05-19T08:07:15.434Z,75.18
2019-05-19T08:09:46.168Z,76.05
2019-05-19T08:12:16.881Z,76.11
2019-05-19T08:14:48.913Z,75.78
2019-05-19T08:17:19.625Z,76.80
2019-05-19T08:19:50.350Z,76.72
2019-05-19T08:22:21.003Z,76.02
2019-05-19T08:24:51.553Z,75.94
2019-05-19T08:27:22.551Z,74.63
2019-05-19T08:29:53.001Z,74.75
2019-05-19T08:32:23.892Z,74.23
2019-05-19T08:34:54.310Z,72.67
2019-05-19T08:37:25.748Z,71.75
2019-05-19T08:39:55.887Z,70.19
2019-05-19T08:42:26.204Z,65.67
2019-05-19T08:44:56.556Z,62.57
2019-05-19T08:47:27.037Z,61.27
2019-05-19T08:49:57.645Z,60.87
2019-05-19T08:52:29.864Z,60.80
2019-05-19T08:55:00.507Z,61.42
2019-05-19T08:57:30.974Z,59.97
2019-05-19T09:00:01.784Z,57.42
2019-05-19T09:02:34.468Z,53.67
2019-05-19T09:05:06.343Z,51.79
2019-05-19T09:07:37.009Z,50.19
2019-05-19T09:10:08.622Z,48.58
2019-05-19T09:12:39.357Z,47.75
2019-05-19T09:15:10.033Z,50.38
2019-05-19T09:17:41.921Z,54.70
2019-05-19T09:20:13.405Z,53.06
2019-05-19T09:22:44.723Z,51.03
2019-05-19T09:25:15.562Z,46.50
2019-05-19T09:27:46.064Z,41.96
2019-05-19T09:30:17.961Z,39.98
2019-05-19T09:32:48.712Z,37.55
2019-05-19T09:35:19.760Z,38.14
2019-05-19T09:37:51.406Z,40.22
2019-05-19T09:40:22.102Z,44.69
2019-05-19T09:42:52.474Z,49.00
2019-05-19T09:45:23.162Z,50.38
2019-05-19T09:47:54.094Z,50.99
2019-05-19T09:50:24.603Z,50.33
2019-05-19T09:52:55.140Z,48.84
2019-05-19T09:55:26.006Z,46.37
2019-05-19T09:57:56.534Z,46.11
2019-05-19T10:00:27.217Z,47.16
2019-05-19T10:02:57.723Z,48.21
2019-05-19T10:05:28.334Z,50.09
2019-05-19T10:07:58.932Z,50.26
2019-05-19T10:10:42.676Z,49.44
2019-05-19T10:13:13.884Z,47.09
2019-05-19T10:15:45.197Z,45.28
2019-05-19T10:18:16.117Z,41.61
2019-05-19T10:20:50.201Z,41.75
2019-05-19T10:23:20.159Z,41.08
2019-05-19T10:25:52.639Z,40.32
2019-05-19T10:28:23.700Z,37.69
2019-05-19T10:30:55.337Z,34.17
2019-05-19T10:33:25.800Z,35.79
2019-05-19T10:35:56.333Z,35.64
2019-05-19T10:38:26.772Z,34.50
2019-05-19T10:40:57.158Z,32.71
2019-05-19T10:43:27.546Z,32.79
2019-05-19T10:46:01.255Z,32.30
2019-05-19T10:48:31.456Z,31.42
2019-05-19T10:51:04.735Z,29.95
2019-05-19T10:53:34.976Z,29.78
2019-05-19T10:56:05.470Z,29.89
2019-05-19T10:58:35.825Z,29.59
2019-05-19T11:01:09.114Z,30.07
2019-05-19T11:03:40.138Z,29.18
2019-05-19T11:06:10.485Z,30.08
2019-05-19T11:08:40.896Z,31.80
2019-05-19T11:11:13.137Z,31.19
2019-05-19T11:13:44.099Z,29.44
2019-05-19T11:16:14.261Z,30.06
2019-05-19T11:18:44.669Z,31.06
2019-05-19T11:21:15.213Z,34.20
2019-05-19T11:23:47.947Z,34.39
2019-05-19T11:26:18.152Z,35.69
2019-05-19T11:28:48.409Z,34.83
2019-05-19T11:31:21.427Z,33.75
2019-05-19T11:33:52.149Z,31.04
2019-05-19T11:36:22.804Z,29.78
2019-05-19T11:38:53.160Z,31.07
2019-05-19T11:41:23.347Z,31.72
2019-05-19T11:43:54.832Z,32.47
2019-05-19T11:46:25.223Z,34.54
2019-05-19T11:48:55.868Z,32.98
2019-05-19T11:51:26.714Z,30.83
2019-05-19T11:53:57.145Z,30.12
2019-05-19T11:56:27.770Z,30.64
2019-05-19T11:58:59.136Z,32.04
2019-05-19T12:01:29.573Z,32.51
2019-05-19T12:03:59.894Z,32.51
2019-05-19T12:06:39.207Z,31.05
2019-05-19T12:09:02.239Z,32.14
2019-05-19T12:11:33.167Z,32.55
2019-05-19T12:14:03.541Z,34.51
2019-05-19T12:16:33.845Z,36.31
2019-05-19T12:19:04.060Z,38.40
2019-05-19T12:21:34.386Z,37.18
2019-05-19T12:24:05.761Z,36.84
2019-05-19T12:26:36.280Z,34.85
2019-05-19T12:29:06.547Z,35.37
2019-05-19T12:31:36.811Z,36.02
2019-05-19T12:34:07.129Z,36.31
2019-05-19T12:36:38.066Z,36.48
2019-05-19T12:39:08.451Z,36.34
2019-05-19T12:41:38.810Z,34.03
2019-05-19T12:44:10.955Z,30.67
2019-05-19T12:46:41.413Z,29.82
2019-05-19T12:49:12.056Z,28.88
2019-05-19T12:51:42.470Z,29.24
2019-05-19T12:54:12.720Z,29.47
2019-05-19T12:56:43.182Z,29.07
2019-05-19T12:59:13.773Z,29.64
2019-05-19T13:01:44.079Z,30.35
2019-05-19T13:04:14.343Z,30.35
2019-05-19T13:06:44.977Z,32.00
2019-05-19T13:09:15.525Z,32.78
2019-05-19T13:11:46.684Z,32.12
2019-05-19T13:14:16.909Z,34.56
2019-05-19T13:16:47.215Z,34.10
2019-05-19T13:19:17.965Z,35.33
2019-05-19T13:21:48.430Z,34.89
2019-05-19T13:24:18.792Z,37.19
2019-05-19T13:26:56.562Z,38.30
2019-05-19T13:29:21.727Z,38.11
2019-05-19T13:31:52.184Z,38.31
2019-05-19T13:34:22.498Z,37.65
2019-05-19T13:36:54.351Z,37.61
2019-05-19T13:39:24.832Z,37.97
2019-05-19T13:41:55.612Z,38.21
2019-05-19T13:44:26.076Z,39.25
2019-05-19T13:46:56.424Z,40.77
2019-05-19T13:49:29.406Z,40.45
2019-05-19T13:51:59.803Z,41.53
2019-05-19T13:54:29.988Z,41.89
2019-05-19T13:57:11.960Z,40.53
2019-05-19T13:59:33.222Z,40.18
2019-05-19T14:02:04.170Z,40.04
2019-05-19T14:04:35.535Z,39.63
2019-05-19T14:07:06.373Z,40.47
2019-05-19T14:09:36.859Z,40.41
2019-05-19T14:12:07.197Z,40.09
2019-05-19T14:14:39.797Z,40.17
2019-05-19T14:17:10.456Z,41.02
2019-05-19T14:19:43.553Z,41.84
2019-05-19T14:22:13.788Z,41.19
2019-05-19T14:24:44.058Z,40.70
2019-05-19T14:27:28.879Z,40.43
2019-05-19T14:29:47.173Z,40.79
2019-05-19T14:32:17.542Z,41.04
2019-05-19T14:34:47.813Z,40.56
2019-05-19T14:37:19.592Z,40.65
2019-05-19T14:39:50.301Z,42.16
2019-05-19T14:42:39.883Z,42.85
2019-05-19T14:45:12.624Z,43.88
2019-05-19T14:47:44.134Z,43.51
2019-05-19T14:50:15.267Z,42.54
2019-05-19T14:52:46.585Z,42.97
2019-05-19T14:55:17.258Z,42.47
2019-05-19T14:57:48.829Z,42.70
2019-05-19T15:00:20.686Z,43.16
2019-05-19T15:02:51.355Z,43.52
2019-05-19T15:05:22.385Z,44.19
2019-05-19T15:07:52.945Z,43.87
2019-05-19T15:10:24.491Z,44.30
2019-05-19T15:12:56.679Z,43.65
2019-05-19T15:15:27.966Z,43.96
2019-05-19T15:17:58.614Z,44.98
2019-05-19T15:20:29.179Z,44.21
2019-05-19T15:23:02.316Z,44.89
2019-05-19T15:25:32.674Z,44.51
2019-05-19T15:28:05.358Z,45.22
2019-05-19T15:30:36.245Z,46.05
2019-05-19T15:33:07.089Z,45.78
2019-05-19T15:35:37.363Z,46.24
2019-05-19T15:38:07.841Z,45.92
2019-05-19T15:40:38.633Z,45.24
2019-05-19T15:43:09.041Z,44.45
2019-05-19T15:45:39.710Z,42.26
2019-05-19T15:48:10.086Z,44.73
2019-05-19T15:50:40.609Z,43.42
2019-05-19T15:53:10.923Z,44.29
2019-05-19T15:55:41.567Z,44.20
2019-05-19T15:58:16.420Z,45.09
2019-05-19T16:00:44.066Z,45.05
2019-05-19T16:03:14.561Z,45.29
2019-05-19T16:05:44.798Z,39.93
2019-05-19T16:08:15.304Z,45.10
2019-05-19T16:10:45.949Z,47.77
2019-05-19T16:13:16.324Z,50.21
2019-05-19T16:15:49.014Z,55.82
2019-05-19T16:18:19.383Z,58.43
2019-05-19T16:20:49.690Z,59.88
2019-05-19T16:23:19.982Z,62.17
2019-05-19T16:25:50.369Z,64.13
2019-05-19T16:28:30.226Z,63.64
2019-05-19T16:30:53.564Z,69.76
2019-05-19T16:33:24.103Z,69.53
2019-05-19T16:35:54.597Z,68.42
2019-05-19T16:38:25.219Z,69.15
2019-05-19T16:40:55.975Z,69.80
2019-05-19T16:43:26.839Z,72.20
2019-05-19T16:45:57.237Z,71.77
2019-05-19T16:48:27.690Z,72.40
2019-05-19T16:50:58.174Z,73.92
2019-05-19T16:53:29.100Z,75.61
2019-05-19T16:55:59.310Z,75.78
2019-05-19T16:58:29.551Z,74.74
2019-05-19T17:00:59.763Z,77.23
2019-05-19T17:03:30.123Z,77.46
2019-05-19T17:06:00.390Z,77.89
2019-05-19T17:08:30.780Z,77.90
2019-05-19T17:11:01.284Z,78.48
2019-05-19T17:13:31.820Z,78.71
2019-05-19T17:16:02.675Z,80.90
2019-05-19T17:18:33.124Z,79.84
2019-05-19T17:21:03.372Z,79.45
2019-05-19T17:23:33.619Z,79.85
2019-05-19T17:26:04.467Z,77.77
2019-05-19T17:28:34.823Z,72.63
2019-05-19T17:31:07.600Z,76.07
2019-05-19T17:33:37.344Z,77.15
2019-05-19T17:36:09.399Z,78.50
2019-05-19T17:38:40.678Z,80.83
2019-05-19T17:41:11.224Z,83.49
2019-05-19T17:43:44.533Z,83.51
2019-05-19T17:46:15.359Z,83.30
2019-05-19T17:48:46.026Z,83.82
2019-05-19T17:51:16.863Z,84.32
2019-05-19T17:53:47.506Z,84.06
2019-05-19T17:56:18.245Z,84.57
2019-05-19T17:58:50.110Z,83.77
2019-05-19T18:01:20.920Z,83.79
2019-05-19T18:03:52.114Z,81.48
2019-05-19T18:06:22.741Z,81.07
2019-05-19T18:08:53.448Z,81.44
2019-05-19T18:11:24.831Z,85.04
2019-05-19T18:13:58.793Z,84.05
2019-05-19T18:16:31.488Z,84.74
2019-05-19T18:19:03.796Z,84.53
2019-05-19T18:21:34.485Z,87.83
2019-05-19T18:24:06.701Z,87.70
2019-05-19T18:26:37.475Z,86.74
2019-05-19T18:29:08.049Z,87.25
2019-05-19T18:31:38.646Z,88.25
2019-05-19T18:34:09.127Z,87.65
2019-05-19T18:36:40.203Z,88.45
2019-05-19T18:39:11.231Z,88.87
2019-05-19T18:41:41.749Z,89.77
2019-05-19T18:44:13.581Z,89.80
2019-05-19T18:46:44.100Z,89.69
2019-05-19T18:49:14.586Z,88.80
2019-05-19T18:51:45.505Z,89.22
2019-05-19T18:54:16.190Z,90.56
2019-05-19T18:56:51.191Z,91.23
2019-05-19T18:59:22.800Z,91.16
2019-05-19T19:01:54.871Z,90.75
2019-05-19T19:04:25.818Z,90.58
2019-05-19T19:06:56.267Z,91.14
2019-05-19T19:09:26.736Z,91.13
2019-05-19T19:12:01.006Z,91.58
2019-05-19T19:14:38.390Z,91.41
2019-05-19T19:17:12.011Z,91.20
2019-05-19T19:19:42.789Z,90.48
2019-05-19T19:22:14.903Z,89.29
2019-05-19T19:24:46.604Z,89.12
2019-05-19T19:27:18.181Z,89.79
2019-05-19T19:30:02.544Z,91.64
2019-05-19T19:32:24.690Z,91.60
2019-05-19T19:34:56.749Z,92.03
2019-05-19T19:37:27.360Z,92.78
2019-05-19T19:39:58.138Z,92.68
2019-05-19T19:42:28.630Z,92.66
2019-05-19T19:45:00.353Z,92.55
2019-05-19T19:47:31.037Z,92.51
2019-05-19T19:50:01.897Z,92.59
2019-05-19T19:52:32.726Z,93.39
2019-05-19T19:55:03.346Z,93.57
2019-05-19T19:57:33.943Z,93.77
2019-05-19T20:00:17.334Z,94.35
2019-05-19T20:02:37.876Z,95.72
2019-05-19T20:05:10.729Z,96.41
2019-05-19T20:07:42.284Z,96.27
2019-05-19T20:10:13.396Z,95.95
2019-05-19T20:12:44.291Z,95.71
2019-05-19T20:15:16.629Z,95.55
2019-05-19T20:17:50.355Z,95.70
2019-05-19T20:20:24.241Z,95.72
2019-05-19T20:22:54.802Z,96.08
2019-05-19T20:25:25.200Z,95.58
2019-05-19T20:27:55.483Z,96.21
2019-05-19T20:30:35.109Z,96.46
2019-05-19T20:32:57.793Z,97.03
2019-05-19T20:35:28.041Z,96.77
2019-05-19T20:37:58.292Z,96.41
2019-05-19T20:40:28.457Z,96.04
2019-05-19T20:42:58.646Z,96.00
2019-05-19T20:45:28.846Z,97.00
2019-05-19T20:47:59.137Z,97.01
2019-05-19T20:50:29.289Z,98.43
2019-05-19T20:52:59.521Z,98.32
2019-05-19T20:55:30.095Z,98.82
2019-05-19T20:58:00.575Z,99.08
2019-05-19T21:00:32.655Z,99.11
2019-05-19T21:03:02.929Z,99.21
2019-05-19T21:05:33.309Z,100.00
2019-05-19T21:08:03.914Z,100.00
2019-05-19T21:10:34.599Z,99.93
2019-05-19T21:13:04.930Z,100.00
2019-05-19T21:15:35.216Z,100.00
2019-05-19T21:18:06.166Z,100.00
2019-05-19T21:20:36.372Z,100.00
2019-05-19T21:23:07.059Z,99.86
2019-05-19T21:25:37.513Z,100.00
2019-05-19T21:28:08.253Z,100.00
2019-05-19T21:30:38.797Z,100.00
2019-05-19T21:33:09.040Z,100.00
2019-05-19T21:35:39.299Z,100.00
2019-05-19T21:38:09.821Z,100.00
2019-05-19T21:40:40.124Z,100.00
2019-05-19T21:43:10.595Z,100.00
2019-05-19T21:45:43.896Z,100.00
2019-05-19T21:48:14.341Z,100.00
2019-05-19T21:50:44.794Z,100.00
2019-05-19T21:53:14.971Z,100.00
2019-05-19T21:55:45.572Z,100.00
2019-05-19T21:58:16.006Z,100.00
2019-05-19T22:00:46.355Z,100.00
2019-05-19T22:03:16.719Z,100.00
2019-05-19T22:05:53.426Z,100.00
2019-05-19T22:08:18.960Z,100.00
2019-05-19T22:10:49.226Z,100.00
2019-05-19T22:13:19.469Z,100.00
2019-05-19T22:15:50.161Z,100.00
2019-05-19T22:18:20.386Z,100.00
2019-05-19T22:20:52.590Z,100.00
2019-05-19T22:23:22.865Z,100.00
2019-05-19T22:25:53.151Z,100.00
2019-05-19T22:28:23.408Z,100.00
2019-05-19T22:30:53.732Z,100.00
2019-05-19T22:33:23.957Z,100.00
2019-05-19T22:35:54.206Z,100.00
2019-05-19T22:38:24.381Z,100.00
2019-05-19T22:40:55.326Z,100.00
2019-05-19T22:43:25.526Z,100.00
2019-05-19T22:45:55.836Z,100.00
2019-05-19T22:48:29.436Z,100.00
2019-05-19T22:51:00.057Z,100.00
2019-05-19T22:53:32.607Z,100.00
2019-05-19T22:56:02.295Z,100.00
2019-05-19T22:58:32.501Z,100.00
2019-05-19T23:01:05.580Z,100.00
2019-05-19T23:03:35.793Z,100.00
2019-05-19T23:06:06.047Z,100.00
2019-05-19T23:08:36.481Z,100.00
2019-05-19T23:11:07.054Z,100.00
2019-05-19T23:13:37.880Z,100.00
2019-05-19T23:16:08.022Z,100.00
2019-05-19T23:18:38.163Z,100.00
2019-05-19T23:21:08.410Z,100.00
2019-05-19T23:23:38.645Z,100.00
2019-05-19T23:26:11.180Z,100.00
2019-05-19T23:28:41.712Z,100.00
2019-05-19T23:31:13.922Z,100.00
2019-05-19T23:33:44.234Z,100.00
2019-05-19T23:36:14.466Z,100.00
2019-05-19T23:38:44.803Z,100.00
2019-05-19T23:41:15.019Z,100.00
2019-05-19T23:43:45.233Z,100.00
2019-05-19T23:46:15.963Z,100.00
2019-05-19T23:48:46.210Z,100.00
2019-05-19T23:51:16.345Z,100.00
2019-05-19T23:53:46.474Z,100.00
2019-05-19T23:56:17.480Z,100.00
2019-05-19T23:58:47.934Z,100.00
